Sunday, July 22, 2018, 12:44 AM EDT
Back to Local

KSNC, Chester, Chester Airport

Location: Chester, CT, United States Lat: 41.384
Local Time: 12:44 AM EDT ( 4:44 GMT) Lon: -72.506
Time Zone: US/Eastern Elev: 416 ft

Show me the last for .
Show Decoded

2018-07-22 00:35 METAR KSNC 220435Z AUTO 07007KT 040V100 10SM OVC007 19/18 A3001 RMK AO2 =
2018-07-22 00:15 METAR KSNC 220415Z AUTO 07007KT 10SM OVC010 18/17 A3001 RMK AO2 =
2018-07-21 23:55 METAR KSNC 220355Z AUTO VRB05KT 9SM FEW001 OVC011 18/17 A3002 RMK AO2 =
2018-07-21 23:35 METAR KSNC 220335Z AUTO 08007G12KT 050V110 3SM -DZ FEW001 BKN014 OVC022 18/16
                 A3003 RMK AO2 =
2018-07-21 23:15 METAR KSNC 220315Z AUTO 09011G16KT 9SM FEW015 BKN022 OVC026 20/15 A3003 RMK AO2
                 =
2018-07-21 22:55 METAR KSNC 220255Z AUTO 09007G13KT 10SM FEW016 BKN024 OVC028 20/14 A3004 RMK AO2
                 =
2018-07-21 22:35 METAR KSNC 220235Z AUTO VRB05G11KT 10SM 20/14 A3005 RMK AO2 =
2018-07-21 22:15 METAR KSNC 220215Z AUTO 07007KT 10SM BKN024 BKN029 OVC049 20/14 A3005 RMK AO2 =
2018-07-21 21:55 METAR KSNC 220155Z AUTO 08009KT 10SM SCT027 BKN035 OVC049 20/14 A3005 RMK AO2 =
2018-07-21 21:35 METAR KSNC 220135Z AUTO 07009KT 10SM BKN028 OVC036 20/14 A3006 RMK AO2 =
2018-07-21 21:15 METAR KSNC 220115Z AUTO VRB05G14KT 10SM BKN029 BKN035 OVC049 20/14 A3006 RMK AO2
                 =
2018-07-21 20:55 METAR KSNC 220055Z AUTO 09007KT 10SM BKN030 BKN036 20/15 A3006 RMK AO2 =
2018-07-21 20:35 METAR KSNC 220035Z AUTO 09008G14KT 10SM SCT035 BKN046 20/15 A3006 RMK AO2 =
2018-07-21 20:15 METAR KSNC 220015Z AUTO 09008G13KT 050V120 10SM SCT036 BKN045 20/15 A3007 RMK
                 AO2 =
2018-07-21 19:55 METAR KSNC 212355Z AUTO 10005KT 10SM FEW038 20/16 A3007 RMK AO2 =
2018-07-21 19:35 METAR KSNC 212335Z AUTO 08006KT 10SM SCT038 SCT046 20/16 A3007 RMK AO2 =
2018-07-21 19:15 METAR KSNC 212315Z AUTO 11005G12KT 10SM SCT047 21/16 A3007 RMK AO2 =
2018-07-21 18:55 METAR KSNC 212255Z AUTO 11003KT 10SM SCT049 SCT055 21/16 A3007 RMK AO2 =
2018-07-21 18:35 METAR KSNC 212235Z AUTO VRB05KT 10SM SCT047 21/16 A3007 RMK AO2 =
2018-07-21 18:15 METAR KSNC 212215Z AUTO 11005KT 10SM SCT049 22/16 A3007 RMK AO2 =
2018-07-21 17:55 METAR KSNC 212155Z AUTO 12005KT 10SM CLR 22/16 A3007 RMK AO2 =
2018-07-21 17:35 METAR KSNC 212135Z AUTO VRB06KT 10SM CLR 23/15 A3008 RMK AO2 =
2018-07-21 17:15 METAR KSNC 212115Z AUTO 12005KT 10SM CLR 23/15 A3008 RMK AO2 =
2018-07-21 16:55 METAR KSNC 212055Z AUTO 13008G13KT 10SM CLR 24/14 A3008 RMK AO2 =
2018-07-21 16:35 METAR KSNC 212035Z AUTO VRB06KT 10SM CLR 24/15 A3008 RMK AO2 =
2018-07-21 16:15 METAR KSNC 212015Z AUTO 13007KT 10SM CLR 23/15 A3009 RMK AO2 =
2018-07-21 15:55 METAR KSNC 211955Z AUTO VRB06G16KT 10SM CLR 23/15 A3009 RMK AO2 =
2018-07-21 15:35 METAR KSNC 211935Z AUTO 11008G15KT 080V140 10SM FEW046 FEW080 FEW110 23/15 A3009
                 RMK AO2 =
2018-07-21 15:15 METAR KSNC 211915Z AUTO 12009G14KT 080V150 10SM FEW055 FEW090 FEW110 23/15 A3010
                 RMK AO2 =
2018-07-21 14:55 METAR KSNC 211855Z AUTO 13011G16KT 10SM FEW055 FEW100 FEW120 24/14 A3010 RMK AO2
                 =
2018-07-21 14:35 METAR KSNC 211835Z AUTO 12011G16KT 070V140 10SM CLR 24/15 A3010 RMK AO2 =
2018-07-21 14:15 METAR KSNC 211815Z AUTO 12011G17KT 10SM CLR 24/15 A3010 RMK AO2 =
2018-07-21 13:55 METAR KSNC 211755Z AUTO 14012G17KT 10SM CLR 24/15 A3011 RMK AO2 =
2018-07-21 13:35 METAR KSNC 211735Z AUTO 14013KT 10SM CLR 24/14 A3012 RMK AO2 =
2018-07-21 13:15 METAR KSNC 211715Z AUTO 10010G17KT 080V150 10SM CLR 24/14 A3012 RMK AO2 =
2018-07-21 12:55 METAR KSNC 211655Z AUTO 13013KT 100V160 10SM CLR 24/14 A3013 RMK AO2 =
2018-07-21 12:35 METAR KSNC 211635Z AUTO 12011G17KT 090V150 10SM CLR 24/14 A3014 RMK AO2 =
2018-07-21 12:15 METAR KSNC 211615Z AUTO 12009KT 10SM FEW031 24/14 A3015 RMK AO2 =
2018-07-21 11:55 METAR KSNC 211555Z AUTO 13010G18KT 090V160 10SM FEW032 FEW100 24/14 A3015 RMK
                 AO2 =
2018-07-21 11:35 METAR KSNC 211535Z AUTO 10007G14KT 080V150 10SM CLR 24/13 A3015 RMK AO2 =
2018-07-21 11:15 METAR KSNC 211515Z AUTO 12008KT 090V150 10SM FEW033 FEW100 24/13 A3016 RMK AO2 =
2018-07-21 10:55 METAR KSNC 211455Z AUTO VRB07KT 10SM FEW032 23/13 A3016 RMK AO2 =
2018-07-21 10:35 METAR KSNC 211435Z AUTO VRB06G11KT 10SM CLR 23/13 A3015 RMK AO2 =
2018-07-21 10:15 METAR KSNC 211415Z AUTO 09008G13KT 10SM CLR 23/13 A3014 RMK AO2 =
2018-07-21 09:55 METAR KSNC 211355Z AUTO VRB06KT 10SM FEW028 FEW110 21/13 A3015 RMK AO2 =
2018-07-21 09:35 METAR KSNC 211335Z AUTO 13007G13KT 10SM CLR 22/13 A3015 RMK AO2 =
2018-07-21 09:15 METAR KSNC 211315Z AUTO 12006G12KT 10SM CLR 22/13 A3015 RMK AO2 =
2018-07-21 08:55 METAR KSNC 211255Z AUTO VRB05KT 10SM CLR 21/14 A3015 RMK AO2 =
2018-07-21 08:35 METAR KSNC 211235Z AUTO VRB05KT 10SM CLR 21/15 A3015 RMK AO2 =
2018-07-21 08:15 METAR KSNC 211215Z AUTO 00000KT 10SM CLR 19/15 A3015 RMK AO2 =
2018-07-21 07:55 METAR KSNC 211155Z AUTO 09004KT 10SM CLR 19/16 A3014 RMK AO2 =
2018-07-21 07:35 METAR KSNC 211135Z AUTO 06004KT 10SM CLR 18/16 A3014 RMK AO2 =
2018-07-21 07:15 METAR KSNC 211115Z AUTO 00000KT 10SM CLR 16/16 A3014 RMK AO2 =
2018-07-21 06:55 METAR KSNC 211055Z AUTO 00000KT 10SM CLR 16/15 A3014 RMK AO2 =
2018-07-21 06:35 METAR KSNC 211035Z AUTO 00000KT 10SM CLR 16/15 A3014 RMK AO2 =
2018-07-21 06:15 METAR KSNC 211015Z AUTO 00000KT 10SM CLR 16/16 A3014 RMK AO2 =
2018-07-21 05:55 METAR KSNC 210955Z AUTO 00000KT 10SM CLR 15/15 A3014 RMK AO2 =
2018-07-21 05:35 METAR KSNC 210935Z AUTO 00000KT 10SM CLR 15/15 A3015 RMK AO2 =
2018-07-21 05:15 METAR KSNC 210915Z AUTO 00000KT 10SM CLR 15/15 A3015 RMK AO2 =
2018-07-21 04:55 METAR KSNC 210855Z AUTO 00000KT 10SM CLR 15/15 A3014 RMK AO2 =
2018-07-21 04:35 METAR KSNC 210835Z AUTO 00000KT 10SM CLR 15/15 A3014 RMK AO2 =
2018-07-21 04:15 METAR KSNC 210815Z AUTO 00000KT 10SM CLR 16/16 A3014 RMK AO2 =
2018-07-21 03:55 METAR KSNC 210755Z AUTO 10SM CLR 16/15 A3014 RMK AO2 =
2018-07-21 03:35 METAR KSNC 210735Z AUTO 00000KT 10SM CLR 16/15 A3013 RMK AO2 =
2018-07-21 03:15 METAR KSNC 210715Z AUTO 9SM CLR 16/16 A3014 RMK AO2 =
2018-07-21 02:55 METAR KSNC 210655Z AUTO 10SM CLR 16/16 A3014 RMK AO2 =
2018-07-21 02:35 METAR KSNC 210635Z AUTO 10SM CLR 16/16 A3014 RMK AO2 =
2018-07-21 02:15 METAR KSNC 210615Z AUTO 00000KT 10SM CLR 16/16 A3014 RMK AO2 =
2018-07-21 01:55 METAR KSNC 210555Z AUTO 00000KT 10SM CLR 16/16 A3014 RMK AO2 =
2018-07-21 01:35 METAR KSNC 210535Z AUTO 00000KT 10SM CLR 16/16 A3014 RMK AO2 =
2018-07-21 01:15 METAR KSNC 210515Z AUTO 10SM CLR 16/16 A3015 RMK AO2 =
2018-07-21 00:55 METAR KSNC 210455Z AUTO 00000KT 10SM CLR 17/16 A3015 RMK AO2 =

Support USWX by starting your Amazon purchase here.